createdAt,value
2022-08-11T00:02:34.953Z,44.36
2022-08-11T00:05:08.066Z,45.30
2022-08-11T00:07:44.282Z,45.77
2022-08-11T00:10:16.606Z,45.93
2022-08-11T00:12:51.781Z,46.89
2022-08-11T00:15:18.984Z,46.70
2022-08-11T00:17:47.914Z,46.22
2022-08-11T00:20:17.153Z,45.59
2022-08-11T00:22:48.419Z,45.49
2022-08-11T00:25:19.845Z,45.83
2022-08-11T00:27:48.619Z,44.85
2022-08-11T00:30:17.170Z,45.86
2022-08-11T00:32:53.241Z,45.84
2022-08-11T00:35:56.230Z,45.86
2022-08-11T00:38:17.395Z,46.34
2022-08-11T00:40:53.534Z,45.91
2022-08-11T00:43:41.863Z,46.55
2022-08-11T00:46:19.399Z,47.53
2022-08-11T00:49:05.700Z,46.86
2022-08-11T00:52:04.417Z,47.67
2022-08-11T00:55:21.557Z,47.80
2022-08-11T00:58:52.351Z,47.36
2022-08-11T01:01:34.635Z,47.77
2022-08-11T01:05:01.226Z,47.44
2022-08-11T01:08:16.072Z,46.85
2022-08-11T01:11:10.672Z,47.75
2022-08-11T01:14:50.683Z,47.53
2022-08-11T01:18:10.769Z,47.57
2022-08-11T01:21:15.359Z,48.57
2022-08-11T01:25:04.914Z,48.11
2022-08-11T01:28:23.000Z,47.60
2022-08-11T01:31:45.777Z,48.42
2022-08-11T01:35:10.840Z,48.54
2022-08-11T01:38:34.438Z,48.71
2022-08-11T01:41:31.808Z,49.32
2022-08-11T01:44:32.727Z,50.00
2022-08-11T01:47:19.121Z,49.04
2022-08-11T01:50:10.684Z,49.74
2022-08-11T01:53:03.617Z,51.25
2022-08-11T01:55:47.563Z,51.43
2022-08-11T01:58:43.593Z,51.11
2022-08-11T02:01:36.901Z,52.65
2022-08-11T02:04:25.683Z,52.05
2022-08-11T02:07:09.681Z,51.87
2022-08-11T02:10:35.143Z,53.32
2022-08-11T02:13:33.409Z,52.98
2022-08-11T02:16:29.054Z,53.53
2022-08-11T02:19:11.195Z,52.35
2022-08-11T02:21:54.930Z,52.49
2022-08-11T02:24:32.133Z,52.97
2022-08-11T02:27:14.289Z,52.98
2022-08-11T02:29:55.317Z,54.34
2022-08-11T02:32:34.829Z,54.82
2022-08-11T02:35:14.227Z,53.92
2022-08-11T02:37:53.278Z,54.88
2022-08-11T02:40:35.811Z,56.21
2022-08-11T02:43:10.929Z,55.89
2022-08-11T02:45:56.450Z,56.91
2022-08-11T02:48:47.655Z,56.82
2022-08-11T02:51:30.022Z,56.86
2022-08-11T02:54:10.850Z,56.38
2022-08-11T02:56:50.486Z,56.95
2022-08-11T02:59:36.907Z,57.11
2022-08-11T03:02:20.194Z,56.56
2022-08-11T03:05:04.977Z,56.69
2022-08-11T03:07:47.827Z,58.28
2022-08-11T03:10:28.150Z,58.94
2022-08-11T03:13:11.350Z,58.91
2022-08-11T03:15:52.156Z,59.25
2022-08-11T03:18:34.489Z,59.30
2022-08-11T03:21:12.586Z,59.55
2022-08-11T03:23:53.456Z,60.54
2022-08-11T03:26:30.508Z,60.76
2022-08-11T03:29:10.937Z,61.03
2022-08-11T03:32:02.460Z,59.77
2022-08-11T03:34:33.261Z,59.08
2022-08-11T03:37:26.747Z,59.71
2022-08-11T03:40:12.500Z,58.12
2022-08-11T03:42:53.088Z,57.88
2022-08-11T03:45:37.418Z,58.37
2022-08-11T03:48:24.960Z,59.45
2022-08-11T03:51:11.006Z,59.41
2022-08-11T03:54:06.361Z,59.39
2022-08-11T03:57:35.813Z,59.20
2022-08-11T04:00:38.791Z,61.04
2022-08-11T04:03:57.587Z,61.56
2022-08-11T04:07:17.555Z,63.08
2022-08-11T04:10:14.590Z,63.07
2022-08-11T04:13:19.433Z,63.14
2022-08-11T04:16:16.219Z,63.75
2022-08-11T04:19:29.788Z,62.87
2022-08-11T04:22:53.363Z,62.96
2022-08-11T04:25:57.702Z,63.10
2022-08-11T04:28:59.967Z,62.24
2022-08-11T04:31:50.608Z,61.53
2022-08-11T04:35:00.266Z,61.08
2022-08-11T04:38:05.627Z,60.17
2022-08-11T04:40:55.748Z,59.22
2022-08-11T04:44:27.598Z,59.03
2022-08-11T04:47:20.895Z,57.34
2022-08-11T04:50:15.175Z,54.84
2022-08-11T04:53:15.844Z,54.51
2022-08-11T04:56:05.527Z,52.65
2022-08-11T04:59:00.690Z,50.73
2022-08-11T05:01:45.218Z,49.59
2022-08-11T05:04:48.951Z,48.66
2022-08-11T05:08:07.707Z,47.44
2022-08-11T05:10:59.890Z,45.94
2022-08-11T05:13:34.507Z,44.89
2022-08-11T05:16:13.465Z,44.38
2022-08-11T05:18:49.926Z,42.93
2022-08-11T05:21:25.113Z,42.36
2022-08-11T05:24:03.038Z,42.14
2022-08-11T05:26:49.135Z,40.97
2022-08-11T05:29:44.647Z,40.40
2022-08-11T05:32:17.369Z,39.27
2022-08-11T05:34:51.906Z,38.33
2022-08-11T05:37:34.372Z,37.73
2022-08-11T05:40:09.074Z,37.37
2022-08-11T05:42:49.931Z,37.15
2022-08-11T05:45:19.358Z,36.66
2022-08-11T05:47:54.294Z,34.80
2022-08-11T05:50:31.347Z,34.65
2022-08-11T05:53:12.663Z,35.21
2022-08-11T05:56:01.886Z,34.49
2022-08-11T05:58:41.978Z,33.38
2022-08-11T06:01:11.811Z,33.07
2022-08-11T06:03:43.682Z,32.98
2022-08-11T06:06:32.875Z,32.22
2022-08-11T06:09:03.025Z,31.62
2022-08-11T06:11:43.500Z,31.55
2022-08-11T06:14:14.858Z,32.40
2022-08-11T06:16:46.735Z,31.22
2022-08-11T06:19:14.418Z,30.46
2022-08-11T06:21:46.307Z,29.35
2022-08-11T06:24:17.348Z,28.79
2022-08-11T06:27:11.882Z,29.23
2022-08-11T06:29:55.157Z,28.12
2022-08-11T06:32:36.106Z,28.19
2022-08-11T06:35:22.020Z,28.18
2022-08-11T06:38:10.313Z,27.04
2022-08-11T06:40:56.684Z,27.47
2022-08-11T06:43:30.509Z,27.29
2022-08-11T06:46:03.260Z,26.92
2022-08-11T06:48:33.755Z,26.95
2022-08-11T06:51:05.236Z,26.24
2022-08-11T06:53:34.843Z,25.48
2022-08-11T06:56:03.742Z,25.22
2022-08-11T07:02:57.116Z,25.92
2022-08-11T07:05:40.267Z,25.22
2022-08-11T07:08:53.101Z,24.95
2022-08-11T07:11:59.747Z,25.43
2022-08-11T07:14:36.349Z,24.02
2022-08-11T07:17:14.533Z,24.05
2022-08-11T07:19:59.623Z,24.33
2022-08-11T07:22:35.262Z,23.90
2022-08-11T07:25:18.325Z,23.39
2022-08-11T07:27:52.983Z,23.89
2022-08-11T07:30:20.712Z,23.58
2022-08-11T07:41:01.396Z,22.16
2022-08-11T07:43:45.583Z,22.47
2022-08-11T07:46:21.510Z,24.60
2022-08-11T07:48:49.617Z,24.04
2022-08-11T07:51:20.241Z,23.44
2022-08-11T07:53:58.737Z,22.74
2022-08-11T07:57:07.233Z,23.76
2022-08-11T08:00:03.838Z,22.41
2022-08-11T08:02:17.594Z,24.53
2022-08-11T08:04:47.892Z,25.11
2022-08-11T08:07:22.361Z,31.46
2022-08-11T08:09:51.518Z,32.83
2022-08-11T08:12:23.693Z,33.48
2022-08-11T08:14:55.478Z,34.72
2022-08-11T08:17:24.318Z,34.99
2022-08-11T08:19:51.352Z,35.41
2022-08-11T08:22:38.671Z,35.91
2022-08-11T08:25:08.684Z,36.67
2022-08-11T08:27:37.920Z,35.81
2022-08-11T08:30:08.376Z,37.03
2022-08-11T08:32:40.547Z,36.17
2022-08-11T08:35:10.972Z,36.83
2022-08-11T08:37:46.240Z,35.73
2022-08-11T08:40:15.588Z,36.07
2022-08-11T08:42:49.720Z,36.08
2022-08-11T08:45:18.811Z,35.66
2022-08-11T08:47:56.430Z,36.55
2022-08-11T08:56:21.778Z,36.12
2022-08-11T08:58:53.430Z,35.73
2022-08-11T09:01:48.187Z,36.19
2022-08-11T09:23:19.229Z,33.71
2022-08-11T09:26:15.938Z,33.45
2022-08-11T09:28:44.248Z,35.32
2022-08-11T09:31:22.466Z,31.98
2022-08-11T09:33:54.642Z,33.34
2022-08-11T09:36:23.091Z,32.34
2022-08-11T09:38:53.961Z,32.97
2022-08-11T09:41:25.767Z,32.28
2022-08-11T09:43:53.754Z,32.45
2022-08-11T09:46:26.506Z,32.39
2022-08-11T09:48:58.605Z,31.72
2022-08-11T09:51:31.811Z,33.05
2022-08-11T09:54:04.780Z,32.80
2022-08-11T09:56:33.597Z,31.22
2022-08-11T09:59:03.492Z,31.72
2022-08-11T10:01:37.146Z,31.67
2022-08-11T10:04:14.208Z,30.74
2022-08-11T10:06:43.190Z,30.43
2022-08-11T10:09:14.566Z,31.36
2022-08-11T10:11:43.815Z,30.69
2022-08-11T10:14:33.905Z,30.50
2022-08-11T10:17:08.396Z,29.57
2022-08-11T10:19:38.774Z,29.46
2022-08-11T10:22:07.955Z,29.07
2022-08-11T10:24:37.614Z,29.62
2022-08-11T10:27:08.211Z,30.50
2022-08-11T10:29:44.315Z,29.66
2022-08-11T10:32:14.495Z,29.52
2022-08-11T10:34:49.668Z,30.27
2022-08-11T10:37:24.597Z,29.69
2022-08-11T10:40:18.509Z,29.82
2022-08-11T10:42:57.687Z,28.45
2022-08-11T10:45:28.232Z,28.55
2022-08-11T10:47:57.675Z,28.15
2022-08-11T10:50:26.819Z,28.24
2022-08-11T10:52:57.509Z,29.31
2022-08-11T10:55:28.467Z,28.45
2022-08-11T10:58:05.002Z,26.66
2022-08-11T11:00:33.741Z,26.00
2022-08-11T11:03:22.950Z,27.87
2022-08-11T11:06:12.621Z,28.28
2022-08-11T11:09:04.164Z,27.81
2022-08-11T11:11:48.018Z,26.02
2022-08-11T11:14:19.229Z,26.58
2022-08-11T11:16:46.744Z,26.90
2022-08-11T11:19:26.171Z,27.25
2022-08-11T11:22:01.499Z,26.79
2022-08-11T11:24:46.028Z,27.64
2022-08-11T11:27:33.555Z,25.97
2022-08-11T11:30:06.994Z,24.44
2022-08-11T11:32:58.585Z,23.57
2022-08-11T11:35:38.775Z,27.57
2022-08-11T11:38:13.196Z,27.71
2022-08-11T11:52:31.561Z,27.53
2022-08-11T11:55:04.119Z,28.66
2022-08-11T11:57:35.442Z,26.97
2022-08-11T12:00:06.318Z,27.52
2022-08-11T12:02:40.034Z,27.18
2022-08-11T12:05:11.231Z,27.51
2022-08-11T12:07:41.519Z,27.73
2022-08-11T12:10:10.114Z,26.67
2022-08-11T12:12:37.799Z,27.22
2022-08-11T12:15:07.307Z,27.22
2022-08-11T12:17:36.197Z,26.69
2022-08-11T12:20:31.536Z,26.97
2022-08-11T12:22:57.978Z,26.92
2022-08-11T12:25:25.356Z,26.58
2022-08-11T12:27:53.985Z,26.26
2022-08-11T12:30:21.336Z,27.71
2022-08-11T12:32:49.402Z,27.34
2022-08-11T12:35:18.262Z,26.56
2022-08-11T12:37:51.617Z,27.46
2022-08-11T12:40:42.994Z,26.85
2022-08-11T12:43:21.262Z,26.78
2022-08-11T12:46:02.508Z,27.28
2022-08-11T12:48:58.382Z,26.74
2022-08-11T12:52:00.607Z,26.80
2022-08-11T12:54:28.639Z,27.09
2022-08-11T12:57:02.500Z,27.00
2022-08-11T12:59:31.755Z,26.15
2022-08-11T13:01:59.867Z,25.97
2022-08-11T13:04:29.501Z,26.19
2022-08-11T13:06:58.223Z,26.07
2022-08-11T13:09:25.716Z,25.94
2022-08-11T13:11:55.840Z,26.24
2022-08-11T13:14:27.219Z,26.21
2022-08-11T13:16:54.977Z,26.25
2022-08-11T13:19:23.939Z,25.57
2022-08-11T13:21:53.287Z,26.37
2022-08-11T13:24:23.311Z,26.01
2022-08-11T13:26:51.853Z,25.82
2022-08-11T13:29:22.034Z,25.87
2022-08-11T13:31:51.398Z,25.93
2022-08-11T13:34:21.271Z,26.27
2022-08-11T13:36:51.121Z,26.86
2022-08-11T13:39:19.344Z,27.00
2022-08-11T13:41:50.088Z,24.94
2022-08-11T13:44:24.795Z,25.45
2022-08-11T13:46:57.624Z,25.20
2022-08-11T13:49:26.278Z,27.40
2022-08-11T13:51:59.685Z,25.45
2022-08-11T13:54:31.447Z,26.24
2022-08-11T13:57:09.327Z,25.32
2022-08-11T13:59:51.769Z,25.60
2022-08-11T14:02:29.949Z,25.65
2022-08-11T14:05:05.036Z,26.05
2022-08-11T14:07:41.321Z,26.51
2022-08-11T14:10:14.349Z,25.68
2022-08-11T14:12:56.931Z,25.11
2022-08-11T14:15:33.196Z,25.49
2022-08-11T14:18:07.479Z,25.52
2022-08-11T14:20:58.498Z,25.74
2022-08-11T14:23:31.566Z,25.16
2022-08-11T14:26:02.288Z,25.56
2022-08-11T14:28:40.019Z,25.33
2022-08-11T14:31:16.037Z,24.42
2022-08-11T14:33:59.985Z,24.29
2022-08-11T14:36:45.720Z,24.57
2022-08-11T14:39:17.911Z,24.17
2022-08-11T14:42:11.191Z,24.72
2022-08-11T14:44:59.696Z,25.32
2022-08-11T14:47:31.439Z,24.54
2022-08-11T14:50:11.623Z,25.14
2022-08-11T14:52:49.056Z,24.79
2022-08-11T14:55:18.636Z,24.12
2022-08-11T14:57:56.173Z,24.37
2022-08-11T15:00:26.836Z,24.81
2022-08-11T15:02:55.783Z,24.71
2022-08-11T15:05:25.682Z,24.58
2022-08-11T15:07:55.779Z,24.99
2022-08-11T15:10:23.342Z,24.67
2022-08-11T15:12:51.430Z,24.83
2022-08-11T15:15:20.918Z,25.16
2022-08-11T15:17:52.962Z,24.79
2022-08-11T15:20:22.691Z,25.39
2022-08-11T15:22:50.052Z,25.69
2022-08-11T15:25:17.485Z,25.36
2022-08-11T15:27:50.701Z,25.31
2022-08-11T15:30:32.631Z,24.49
2022-08-11T15:33:07.829Z,25.02
2022-08-11T15:35:39.308Z,24.92
2022-08-11T15:38:17.540Z,25.52
2022-08-11T15:40:45.467Z,25.85
2022-08-11T15:43:24.601Z,25.29
2022-08-11T15:45:58.270Z,24.98
2022-08-11T15:49:03.655Z,25.24
2022-08-11T15:51:37.060Z,25.42
2022-08-11T15:54:10.298Z,25.04
2022-08-11T15:56:44.100Z,26.23
2022-08-11T15:59:42.008Z,26.63
2022-08-11T16:02:07.247Z,24.60
2022-08-11T16:04:39.757Z,25.50
2022-08-11T16:07:11.261Z,26.57
2022-08-11T16:09:51.658Z,26.60
2022-08-11T16:12:28.391Z,26.68
2022-08-11T16:15:04.529Z,27.19
2022-08-11T16:17:37.566Z,26.78
2022-08-11T16:20:12.183Z,28.32
2022-08-11T16:22:42.693Z,26.75
2022-08-11T16:27:01.681Z,26.64
2022-08-11T16:28:16.404Z,26.72
2022-08-11T16:30:45.986Z,27.05
2022-08-11T16:33:50.468Z,27.49
2022-08-11T16:36:06.654Z,27.44
2022-08-11T16:38:37.931Z,27.90
2022-08-11T16:41:11.802Z,27.22
2022-08-11T16:43:44.762Z,27.70
2022-08-11T16:46:17.035Z,26.71
2022-08-11T16:48:49.110Z,27.42
2022-08-11T16:51:17.423Z,26.80
2022-08-11T16:53:54.786Z,26.69
2022-08-11T16:56:38.312Z,27.83
2022-08-11T16:59:17.060Z,26.97
2022-08-11T17:01:53.518Z,26.79
2022-08-11T17:04:36.545Z,27.08
2022-08-11T17:07:23.803Z,27.57
2022-08-11T17:10:02.744Z,26.49
2022-08-11T17:12:33.952Z,27.26
2022-08-11T17:15:06.492Z,26.59
2022-08-11T17:17:38.956Z,27.14
2022-08-11T17:20:40.336Z,26.70
2022-08-11T17:23:04.844Z,27.58
2022-08-11T17:26:03.959Z,27.24
2022-08-11T17:28:24.564Z,27.29
2022-08-11T17:30:54.659Z,27.32
2022-08-11T17:33:23.923Z,26.68
2022-08-11T17:35:52.011Z,26.74
2022-08-11T17:38:24.522Z,27.12
2022-08-11T17:40:56.410Z,27.15
2022-08-11T17:43:24.438Z,27.52
2022-08-11T17:45:57.481Z,27.17
2022-08-11T17:48:28.598Z,28.33
2022-08-11T17:51:03.051Z,27.07
2022-08-11T17:53:38.694Z,27.20
2022-08-11T17:56:11.487Z,27.13
2022-08-11T17:58:50.230Z,26.69
2022-08-11T18:01:20.949Z,26.81
2022-08-11T18:03:57.430Z,27.03
2022-08-11T18:06:32.606Z,27.01
2022-08-11T18:09:07.568Z,27.24
2022-08-11T18:12:10.036Z,27.25
2022-08-11T18:14:26.945Z,27.38
2022-08-11T18:16:56.358Z,27.49
2022-08-11T18:19:24.422Z,27.54
2022-08-11T18:22:15.791Z,27.63
2022-08-11T18:24:54.417Z,27.96
2022-08-11T18:27:34.732Z,27.40
2022-08-11T18:30:09.699Z,28.09
2022-08-11T18:32:49.695Z,28.92
2022-08-11T18:35:23.021Z,30.03
2022-08-11T18:37:52.803Z,28.67
2022-08-11T18:40:28.025Z,29.74
2022-08-11T18:43:02.310Z,30.34
2022-08-11T18:45:45.264Z,30.80
2022-08-11T18:48:20.629Z,30.63
2022-08-11T18:50:53.553Z,31.85
2022-08-11T18:53:47.377Z,30.42
2022-08-11T18:56:19.967Z,30.67
2022-08-11T18:58:50.305Z,31.50
2022-08-11T19:01:23.169Z,31.03
2022-08-11T19:04:02.251Z,31.10
2022-08-11T19:06:41.252Z,31.10
2022-08-11T19:09:14.744Z,31.01
2022-08-11T19:11:45.690Z,31.44
2022-08-11T19:14:15.667Z,31.47
2022-08-11T19:16:45.557Z,31.13
2022-08-11T19:19:16.376Z,31.30
2022-08-11T19:21:47.397Z,33.92
2022-08-11T19:24:18.015Z,32.72
2022-08-11T19:26:53.180Z,32.07
2022-08-11T19:30:07.014Z,32.05
2022-08-11T19:32:19.128Z,32.16
2022-08-11T19:34:50.140Z,31.98
2022-08-11T19:37:22.032Z,31.84
2022-08-11T19:39:53.069Z,31.76
2022-08-11T19:42:23.096Z,32.77
2022-08-11T19:44:50.785Z,33.29
2022-08-11T19:47:20.384Z,31.87
2022-08-11T19:49:49.737Z,34.46
2022-08-11T19:52:18.868Z,36.13
2022-08-11T19:54:49.214Z,37.92
2022-08-11T19:57:18.358Z,36.30
2022-08-11T19:59:49.711Z,38.92
2022-08-11T20:02:17.579Z,39.56
2022-08-11T20:04:46.021Z,37.91
2022-08-11T20:07:14.210Z,39.00
2022-08-11T20:10:05.182Z,40.28
2022-08-11T20:12:33.036Z,39.69
2022-08-11T20:15:04.430Z,42.03
2022-08-11T20:17:37.529Z,43.42
2022-08-11T20:20:08.521Z,42.02
2022-08-11T20:22:36.913Z,44.03
2022-08-11T20:25:06.664Z,44.46
2022-08-11T20:27:37.889Z,44.07
2022-08-11T20:30:08.180Z,43.74
2022-08-11T20:32:38.933Z,43.00
2022-08-11T20:35:09.466Z,42.07
2022-08-11T20:37:41.032Z,41.29
2022-08-11T20:40:14.826Z,40.60
2022-08-11T20:42:44.491Z,41.68
2022-08-11T20:45:15.666Z,41.39
2022-08-11T20:47:59.420Z,40.77
2022-08-11T20:50:31.710Z,40.94
2022-08-11T20:52:59.459Z,41.27
2022-08-11T20:55:51.662Z,41.56
2022-08-11T20:58:21.958Z,40.19
2022-08-11T21:00:55.474Z,41.18
2022-08-11T21:03:36.224Z,41.07
2022-08-11T21:06:14.628Z,39.52
2022-08-11T21:09:01.619Z,41.12
2022-08-11T21:11:30.313Z,40.59
2022-08-11T21:14:00.703Z,41.29
2022-08-11T21:16:36.365Z,39.77
2022-08-11T21:19:13.232Z,41.81
2022-08-11T21:21:46.277Z,41.95
2022-08-11T21:24:20.080Z,44.74
2022-08-11T21:26:52.510Z,47.35
2022-08-11T21:29:22.413Z,44.56
2022-08-11T21:31:54.618Z,45.05
2022-08-11T21:34:24.682Z,41.95
2022-08-11T21:36:53.655Z,40.70
2022-08-11T21:39:25.393Z,40.45
2022-08-11T21:41:54.340Z,40.97
2022-08-11T21:44:23.275Z,40.43
2022-08-11T21:46:53.356Z,40.99
2022-08-11T21:49:22.971Z,41.09
2022-08-11T21:51:49.812Z,41.03
2022-08-11T21:54:17.790Z,43.52
2022-08-11T21:56:47.168Z,41.85
2022-08-11T21:59:23.679Z,40.82
2022-08-11T22:01:54.467Z,40.05
2022-08-11T22:04:21.736Z,40.22
2022-08-11T22:06:51.243Z,39.78
2022-08-11T22:09:18.891Z,39.82
2022-08-11T22:11:46.371Z,40.16
2022-08-11T22:14:14.227Z,39.89
2022-08-11T22:16:41.075Z,40.53
2022-08-11T22:19:09.990Z,40.55
2022-08-11T22:22:02.742Z,41.48
2022-08-11T22:24:30.467Z,42.60
2022-08-11T22:26:57.895Z,42.33
2022-08-11T22:29:38.195Z,41.75
2022-08-11T22:32:13.333Z,41.66
2022-08-11T22:34:52.999Z,41.94
2022-08-11T22:37:27.281Z,42.48
2022-08-11T22:40:03.066Z,41.35
2022-08-11T22:42:33.985Z,41.22
2022-08-11T22:45:01.703Z,41.99
2022-08-11T22:47:36.422Z,42.00
2022-08-11T22:50:13.118Z,41.76
2022-08-11T22:52:45.692Z,41.47
2022-08-11T22:55:14.953Z,41.91
2022-08-11T22:58:00.951Z,41.97
2022-08-11T23:00:30.527Z,42.26
2022-08-11T23:02:59.448Z,42.09
2022-08-11T23:05:29.348Z,42.37
2022-08-11T23:07:58.159Z,41.60
2022-08-11T23:10:27.691Z,42.51
2022-08-11T23:12:56.581Z,42.83
2022-08-11T23:15:24.496Z,43.31
2022-08-11T23:17:52.223Z,43.32
2022-08-11T23:20:29.645Z,43.77
2022-08-11T23:23:09.742Z,45.07
2022-08-11T23:25:39.250Z,44.52
2022-08-11T23:28:09.869Z,44.97
2022-08-11T23:30:38.758Z,45.54
2022-08-11T23:33:07.970Z,45.92
2022-08-11T23:35:40.493Z,45.02
2022-08-11T23:38:29.019Z,48.48
2022-08-11T23:40:56.233Z,48.46
2022-08-11T23:43:24.460Z,48.52
2022-08-11T23:45:51.362Z,45.01
2022-08-11T23:48:26.831Z,45.38
2022-08-11T23:50:59.402Z,43.75
2022-08-11T23:53:29.314Z,44.23
2022-08-11T23:55:56.258Z,44.75
2022-08-11T23:58:25.989Z,45.08
